createdAt,value
2023-04-03T00:02:19.089Z,99046.84
2023-04-03T00:04:47.888Z,99049.23
2023-04-03T00:07:17.900Z,99048.16
2023-04-03T00:09:46.862Z,99043.98
2023-04-03T00:12:15.097Z,99042.85
2023-04-03T00:14:43.348Z,99041.77
2023-04-03T00:17:16.958Z,99043.93
2023-04-03T00:19:45.361Z,99042.48
2023-04-03T00:22:13.427Z,99044.87
2023-04-03T00:24:48.895Z,99046.09
2023-04-03T00:27:20.268Z,99042.89
2023-04-03T00:29:50.756Z,99041.30
2023-04-03T00:32:19.692Z,99044.61
2023-04-03T00:34:48.302Z,99043.66
2023-04-03T00:37:16.516Z,99043.17
2023-04-03T00:39:44.741Z,99043.83
2023-04-03T00:42:15.292Z,99046.71
2023-04-03T00:44:43.502Z,99045.77
2023-04-03T00:47:13.107Z,99042.20
2023-04-03T00:49:42.374Z,99045.19
2023-04-03T00:52:13.938Z,99045.18
2023-04-03T00:54:43.008Z,99045.63
2023-04-03T00:57:11.883Z,99041.55
2023-04-03T00:59:43.253Z,99046.52
2023-04-03T01:02:11.850Z,99037.34
2023-04-03T01:04:42.910Z,99038.83
2023-04-03T01:07:13.667Z,99036.98
2023-04-03T01:09:42.275Z,99037.96
2023-04-03T01:12:22.759Z,99040.09
2023-04-03T01:14:58.912Z,99041.82
2023-04-03T01:17:39.166Z,99041.44
2023-04-03T01:20:29.372Z,99043.69
2023-04-03T01:23:10.070Z,99040.95
2023-04-03T01:25:40.569Z,99042.65
2023-04-03T01:28:11.111Z,99041.92
2023-04-03T01:31:01.497Z,99039.42
2023-04-03T01:33:30.390Z,99044.85
2023-04-03T01:35:58.785Z,99042.15
2023-04-03T01:38:27.198Z,99045.50
2023-04-03T01:40:55.738Z,99046.21
2023-04-03T01:43:24.076Z,99044.90
2023-04-03T01:45:55.435Z,99045.72
2023-04-03T01:48:24.008Z,99050.34
2023-04-03T01:50:52.323Z,99047.95
2023-04-03T01:53:21.007Z,99047.06
2023-04-03T01:55:49.922Z,99046.44
2023-04-03T01:58:18.875Z,99045.67
2023-04-03T02:00:49.409Z,99044.59
2023-04-03T02:03:18.632Z,99047.14
2023-04-03T02:05:46.736Z,99045.46
2023-04-03T02:08:15.345Z,99042.71
2023-04-03T02:10:43.443Z,99046.77
2023-04-03T02:13:12.100Z,99046.57
2023-04-03T02:15:40.708Z,99052.95
2023-04-03T02:18:09.399Z,99048.80
2023-04-03T02:20:39.717Z,99051.31
2023-04-03T02:23:08.310Z,99053.07
2023-04-03T02:25:38.543Z,99053.35
2023-04-03T02:28:10.505Z,99054.23
2023-04-03T02:30:39.916Z,99056.53
2023-04-03T02:33:11.553Z,99055.60
2023-04-03T02:35:41.781Z,99052.19
2023-04-03T02:38:10.089Z,99053.31
2023-04-03T02:40:39.108Z,99056.38
2023-04-03T02:43:07.457Z,99060.21
2023-04-03T02:45:36.932Z,99057.24
2023-04-03T02:48:06.061Z,99058.40
2023-04-03T02:50:35.077Z,99058.85
2023-04-03T02:53:03.430Z,99060.66
2023-04-03T02:55:31.680Z,99056.10
2023-04-03T02:58:00.134Z,99057.66
2023-04-03T03:00:28.886Z,99060.86
2023-04-03T03:02:57.451Z,99063.04
2023-04-03T03:05:25.733Z,99064.85
2023-04-03T03:07:54.119Z,99065.71
2023-04-03T03:10:22.659Z,99064.40
2023-04-03T03:12:51.039Z,99070.62
2023-04-03T03:15:20.411Z,99067.67
2023-04-03T03:17:49.884Z,99065.30
2023-04-03T03:20:25.742Z,99063.77
2023-04-03T03:22:54.837Z,99062.85
2023-04-03T03:25:24.656Z,99064.63
2023-04-03T03:27:54.137Z,99062.90
2023-04-03T03:30:22.914Z,99065.07
2023-04-03T03:32:51.436Z,99065.55
2023-04-03T03:35:19.673Z,99068.36
2023-04-03T03:37:50.483Z,99069.47
2023-04-03T03:40:19.662Z,99066.83
2023-04-03T03:42:47.896Z,99071.64
2023-04-03T03:45:16.394Z,99069.90
2023-04-03T03:47:44.682Z,99075.81
2023-04-03T03:50:13.147Z,99077.69
2023-04-03T03:52:41.803Z,99077.73
2023-04-03T03:55:10.488Z,99076.69
2023-04-03T03:57:41.447Z,99076.54
2023-04-03T04:00:10.858Z,99078.83
2023-04-03T04:02:48.676Z,99078.88
2023-04-03T04:05:19.588Z,99080.07
2023-04-03T04:07:48.140Z,99081.88
2023-04-03T04:10:16.978Z,99087.67
2023-04-03T04:12:45.923Z,99091.30
2023-04-03T04:15:15.763Z,99093.00
2023-04-03T04:17:44.098Z,99093.35
2023-04-03T04:20:13.726Z,99096.20
2023-04-03T04:22:43.265Z,99095.64
2023-04-03T04:25:12.120Z,99098.04
2023-04-03T04:27:41.048Z,99098.19
2023-04-03T04:30:09.918Z,99097.34
2023-04-03T04:32:38.701Z,99094.45
2023-04-03T04:35:07.821Z,99094.63
2023-04-03T04:37:37.489Z,99095.16
2023-04-03T04:40:06.739Z,99097.72
2023-04-03T04:42:35.250Z,99097.86
2023-04-03T04:45:08.835Z,99096.77
2023-04-03T04:47:38.163Z,99098.19
2023-04-03T04:50:07.418Z,99097.61
2023-04-03T04:52:37.039Z,99099.14
2023-04-03T04:55:06.504Z,99102.80
2023-04-03T04:57:36.703Z,99100.33
2023-04-03T05:00:07.001Z,99100.66
2023-04-03T05:02:42.012Z,99099.70
2023-04-03T05:05:10.610Z,99105.23
2023-04-03T05:07:39.515Z,99107.16
2023-04-03T05:10:09.506Z,99111.23
2023-04-03T05:12:37.927Z,99108.70
2023-04-03T05:15:07.547Z,99109.94
2023-04-03T05:17:36.120Z,99108.87
2023-04-03T05:20:06.159Z,99106.48
2023-04-03T05:22:36.579Z,99112.16
2023-04-03T05:25:08.382Z,99114.46
2023-04-03T05:27:37.802Z,99113.07
2023-04-03T05:30:07.062Z,99116.91
2023-04-03T05:32:35.902Z,99119.80
2023-04-03T05:35:26.623Z,99121.23
2023-04-03T05:37:56.880Z,99121.25
2023-04-03T05:40:25.261Z,99125.03
2023-04-03T05:42:55.164Z,99124.67
2023-04-03T05:45:25.120Z,99129.30
2023-04-03T05:47:53.373Z,99130.95
2023-04-03T05:50:22.092Z,99131.42
2023-04-03T05:52:52.311Z,99134.88
2023-04-03T05:55:20.927Z,99137.60
2023-04-03T05:57:49.329Z,99137.83
2023-04-03T06:00:18.133Z,99145.34
2023-04-03T06:02:51.937Z,99146.55
2023-04-03T06:05:23.805Z,99148.65
2023-04-03T06:07:52.060Z,99151.98
2023-04-03T06:10:21.181Z,99149.02
2023-04-03T06:12:49.513Z,99154.48
2023-04-03T06:15:18.328Z,99155.15
2023-04-03T06:17:49.987Z,99156.61
2023-04-03T06:20:18.698Z,99156.23
2023-04-03T06:22:47.081Z,99159.81
2023-04-03T06:25:15.526Z,99159.36
2023-04-03T06:27:43.858Z,99163.23
2023-04-03T06:30:12.434Z,99163.11
2023-04-03T06:32:41.640Z,99161.47
2023-04-03T06:35:10.944Z,99168.44
2023-04-03T06:37:39.431Z,99164.66
2023-04-03T06:40:08.558Z,99170.15
2023-04-03T06:42:38.492Z,99172.34
2023-04-03T06:45:12.800Z,99172.11
2023-04-03T06:47:43.831Z,99176.77
2023-04-03T06:50:15.067Z,99176.56
2023-04-03T06:52:43.551Z,99179.91
2023-04-03T06:55:12.351Z,99179.48
2023-04-03T06:57:42.477Z,99180.08
2023-04-03T07:00:13.215Z,99184.25
2023-04-03T07:02:54.581Z,99184.23
2023-04-03T07:05:23.492Z,99191.20
2023-04-03T07:07:52.446Z,99191.65
2023-04-03T07:10:21.067Z,99194.71
2023-04-03T07:12:49.769Z,99195.53
2023-04-03T07:15:18.068Z,99196.08
2023-04-03T07:17:47.061Z,99196.21
2023-04-03T07:20:16.357Z,99199.94
2023-04-03T07:22:44.581Z,99200.98
2023-04-03T07:25:13.500Z,99201.27
2023-04-03T07:27:42.332Z,99201.83
2023-04-03T07:30:11.079Z,99203.95
2023-04-03T07:32:39.972Z,99202.95
2023-04-03T07:35:08.928Z,99201.39
2023-04-03T07:37:37.531Z,99201.80
2023-04-03T07:40:07.710Z,99204.86
2023-04-03T07:42:37.439Z,99200.19
2023-04-03T07:45:06.657Z,99203.55
2023-04-03T07:47:36.187Z,99205.73
2023-04-03T07:50:04.830Z,99210.14
2023-04-03T07:52:38.848Z,99206.78
2023-04-03T07:55:08.066Z,99207.11
2023-04-03T07:57:37.386Z,99209.42
2023-04-03T08:00:07.168Z,99207.90
2023-04-03T08:02:41.124Z,99213.12
2023-04-03T08:05:09.672Z,99218.67
2023-04-03T08:07:38.731Z,99218.30
2023-04-03T08:10:07.966Z,99220.00
2023-04-03T08:12:37.939Z,99217.13
2023-04-03T08:15:07.381Z,99218.70
2023-04-03T08:17:38.255Z,99218.80
2023-04-03T08:20:07.651Z,99225.37
2023-04-03T08:22:35.975Z,99227.64
2023-04-03T08:25:04.501Z,99229.55
2023-04-03T08:27:35.744Z,99228.48
2023-04-03T08:30:05.280Z,99229.61
2023-04-03T08:32:36.121Z,99234.23
2023-04-03T08:35:06.414Z,99235.38
2023-04-03T08:37:37.523Z,99237.20
2023-04-03T08:40:06.878Z,99232.65
2023-04-03T08:42:44.184Z,99238.11
2023-04-03T08:45:16.034Z,99237.80
2023-04-03T08:47:48.491Z,99242.04
2023-04-03T08:50:18.476Z,99242.67
2023-04-03T08:52:51.593Z,99239.67
2023-04-03T08:55:35.412Z,99242.17
2023-04-03T08:58:08.242Z,99245.08
2023-04-03T09:00:57.158Z,99245.42
2023-04-03T09:03:26.504Z,99242.80
2023-04-03T09:05:59.217Z,99244.55
2023-04-03T09:08:32.884Z,99247.45
2023-04-03T09:11:25.473Z,99250.23
2023-04-03T09:13:58.899Z,99252.95
2023-04-03T09:16:38.542Z,99254.31
2023-04-03T09:19:27.013Z,99255.30
2023-04-03T09:21:58.448Z,99259.75
2023-04-03T09:24:27.066Z,99257.20
2023-04-03T09:27:03.559Z,99260.67
2023-04-03T09:29:33.080Z,99258.13
2023-04-03T09:32:03.997Z,99260.40
2023-04-03T09:34:37.150Z,99257.35
2023-04-03T09:37:09.931Z,99259.63
2023-04-03T09:39:54.362Z,99259.63
2023-04-03T09:42:24.540Z,99264.61
2023-04-03T09:45:04.432Z,99262.88
2023-04-03T09:47:35.037Z,99259.30
2023-04-03T09:50:15.517Z,99256.46
2023-04-03T09:52:48.652Z,99251.41
2023-04-03T09:55:30.902Z,99252.13
2023-04-03T09:58:08.998Z,99250.45
2023-04-03T10:00:38.939Z,99251.70
2023-04-03T10:03:36.502Z,99250.94
2023-04-03T10:06:04.913Z,99252.66
2023-04-03T10:08:35.607Z,99254.77
2023-04-03T10:11:11.272Z,99253.36
2023-04-03T10:13:52.491Z,99257.27
2023-04-03T10:16:30.763Z,99257.38
2023-04-03T10:19:08.254Z,99256.85
2023-04-03T10:21:44.002Z,99256.98
2023-04-03T10:24:14.855Z,99260.08
2023-04-03T10:26:49.266Z,99258.66
2023-04-03T10:29:23.044Z,99258.66
2023-04-03T10:31:58.114Z,99263.71
2023-04-03T10:34:31.418Z,99260.95
2023-04-03T10:37:21.674Z,99259.27
2023-04-03T10:40:26.020Z,99262.37
2023-04-03T10:43:03.875Z,99259.48
2023-04-03T10:46:11.479Z,99258.38
2023-04-03T10:48:50.316Z,99260.59
2023-04-03T10:51:40.484Z,99261.52
2023-04-03T10:54:28.122Z,99260.11
2023-04-03T10:57:08.574Z,99261.15
2023-04-03T10:59:48.899Z,99262.02
2023-04-03T11:02:23.894Z,99262.78
2023-04-03T11:05:00.090Z,99273.75
2023-04-03T11:07:32.164Z,99273.98
2023-04-03T11:10:04.922Z,99277.41
2023-04-03T11:12:48.073Z,99273.46
2023-04-03T11:15:18.365Z,99276.67
2023-04-03T11:17:51.892Z,99281.84
2023-04-03T11:20:39.065Z,99286.15
2023-04-03T11:23:30.367Z,99290.79
2023-04-03T11:26:15.598Z,99296.48
2023-04-03T11:28:44.021Z,99300.23
2023-04-03T11:31:25.299Z,99303.65
2023-04-03T11:34:29.832Z,99311.05
2023-04-03T11:37:01.320Z,99311.09
2023-04-03T11:39:36.868Z,99316.14
2023-04-03T11:42:38.546Z,99321.56
2023-04-03T11:45:28.308Z,99316.75
2023-04-03T11:48:23.466Z,99322.89
2023-04-03T11:50:52.972Z,99331.01
2023-04-03T11:53:30.119Z,99328.60
2023-04-03T11:59:25.035Z,99339.25
2023-04-03T12:01:56.748Z,99335.56
2023-04-03T12:04:25.205Z,99338.41
2023-04-03T12:07:30.209Z,99343.73
2023-04-03T12:09:58.223Z,99346.98
2023-04-03T12:12:30.576Z,99349.30
2023-04-03T12:15:33.013Z,99347.94
2023-04-03T12:17:59.959Z,99356.60
2023-04-03T12:20:49.494Z,99361.33
2023-04-03T12:24:03.127Z,99369.23
2023-04-03T12:26:49.295Z,99373.36
2023-04-03T12:29:43.227Z,99375.25
2023-04-03T12:32:26.282Z,99377.36
2023-04-03T12:35:15.108Z,99378.30
2023-04-03T12:38:19.421Z,99376.85
2023-04-03T12:41:18.267Z,99379.33
2023-04-03T12:44:28.918Z,99377.85
2023-04-03T12:46:56.005Z,99384.25
2023-04-03T12:49:29.248Z,99383.14
2023-04-03T12:51:57.121Z,99389.45
2023-04-03T12:54:33.316Z,99391.95
2023-04-03T12:57:24.056Z,99399.27
2023-04-03T12:59:51.506Z,99402.15
2023-04-03T13:02:21.470Z,99401.04
2023-04-03T13:04:53.669Z,99404.00
2023-04-03T13:07:22.619Z,99411.61
2023-04-03T13:09:58.233Z,99412.70
2023-04-03T13:12:25.289Z,99412.49
2023-04-03T13:14:57.065Z,99414.88
2023-04-03T13:17:24.915Z,99415.74
2023-04-03T13:19:52.101Z,99415.54
2023-04-03T13:22:43.699Z,99423.48
2023-04-03T13:25:11.939Z,99421.48
2023-04-03T13:27:39.849Z,99427.77
2023-04-03T13:30:07.892Z,99426.01
2023-04-03T13:32:36.182Z,99429.48
2023-04-03T13:35:15.679Z,99434.34
2023-04-03T13:37:55.833Z,99434.17
2023-04-03T13:40:22.846Z,99441.03
2023-04-03T13:43:06.723Z,99440.43
2023-04-03T13:45:34.709Z,99447.05
2023-04-03T13:50:55.008Z,99450.83
2023-04-03T13:53:21.886Z,99453.67
2023-04-03T13:55:57.886Z,99452.42
2023-04-03T13:58:28.984Z,99462.51
2023-04-03T14:01:00.434Z,99464.33
2023-04-03T14:03:34.281Z,99468.42
2023-04-03T14:06:01.758Z,99467.77
2023-04-03T14:08:42.164Z,99474.27
2023-04-03T14:11:14.923Z,99478.58
2023-04-03T14:13:42.319Z,99479.66
2023-04-03T14:16:16.156Z,99484.15
2023-04-03T14:18:47.427Z,99486.83
2023-04-03T14:21:15.202Z,99490.70
2023-04-03T14:23:42.319Z,99495.46
2023-04-03T14:26:29.388Z,99493.01
2023-04-03T14:28:57.618Z,99498.45
2023-04-03T14:31:25.389Z,99500.43
2023-04-03T14:33:52.992Z,99502.10
2023-04-03T14:36:22.436Z,99502.55
2023-04-03T14:38:49.712Z,99498.85
2023-04-03T14:41:18.338Z,99504.06
2023-04-03T14:43:45.199Z,99509.69
2023-04-03T14:46:48.164Z,99510.22
2023-04-03T14:49:20.854Z,99517.29
2023-04-03T14:51:48.089Z,99515.45
2023-04-03T14:54:17.689Z,99520.14
2023-04-03T14:56:44.972Z,99519.15
2023-04-03T14:59:13.598Z,99522.80
2023-04-03T15:01:40.475Z,99525.48
2023-04-03T15:04:18.297Z,99533.08
2023-04-03T15:06:45.796Z,99529.20
2023-04-03T15:09:19.918Z,99535.81
2023-04-03T15:11:47.807Z,99542.20
2023-04-03T15:14:19.657Z,99546.02
2023-04-03T15:16:56.794Z,99549.92
2023-04-03T15:19:25.961Z,99554.14
2023-04-03T15:21:53.055Z,99557.20
2023-04-03T15:24:19.753Z,99558.77
2023-04-03T15:26:46.965Z,99562.39
2023-04-03T15:29:14.907Z,99564.98
2023-04-03T15:31:41.737Z,99569.20
2023-04-03T15:34:08.462Z,99573.20
2023-04-03T15:36:35.369Z,99572.04
2023-04-03T15:39:02.329Z,99563.65
2023-04-03T15:41:29.223Z,99567.88
2023-04-03T15:43:55.926Z,99570.41
2023-04-03T15:46:23.127Z,99571.36
2023-04-03T15:48:50.046Z,99575.92
2023-04-03T15:51:17.184Z,99573.71
2023-04-03T15:53:44.630Z,99578.91
2023-04-03T15:56:12.213Z,99579.56
2023-04-03T15:58:39.379Z,99572.23
2023-04-03T16:01:06.548Z,99573.05
2023-04-03T16:03:34.524Z,99576.12
2023-04-03T16:06:01.685Z,99578.48
2023-04-03T16:08:30.426Z,99579.33
2023-04-03T16:10:57.097Z,99579.89
2023-04-03T16:13:23.781Z,99585.48
2023-04-03T16:15:50.681Z,99583.27
2023-04-03T16:18:18.769Z,99589.05
2023-04-03T16:20:48.916Z,99593.77
2023-04-03T16:23:15.684Z,99590.24
2023-04-03T16:25:46.429Z,99597.84
2023-04-03T16:28:14.321Z,99599.27
2023-04-03T16:30:41.891Z,99597.71
2023-04-03T16:33:10.257Z,99599.66
2023-04-03T16:35:37.924Z,99598.31
2023-04-03T16:38:04.892Z,99595.94
2023-04-03T16:40:34.113Z,99597.55
2023-04-03T16:43:03.920Z,99593.64
2023-04-03T16:45:31.183Z,99599.31
2023-04-03T16:47:58.267Z,99599.60
2023-04-03T16:50:25.276Z,99606.45
2023-04-03T16:52:52.297Z,99610.02
2023-04-03T16:55:21.037Z,99607.77
2023-04-03T16:57:48.201Z,99616.69
2023-04-03T17:00:15.683Z,99622.45
2023-04-03T17:02:42.928Z,99627.05
2023-04-03T17:05:09.984Z,99630.35
2023-04-03T17:07:36.945Z,99634.82
2023-04-03T17:10:05.114Z,99641.77
2023-04-03T17:12:36.983Z,99649.80
2023-04-03T17:15:04.915Z,99654.12
2023-04-03T17:17:33.719Z,99652.71
2023-04-03T17:20:01.135Z,99654.73
2023-04-03T17:22:28.915Z,99657.59
2023-04-03T17:24:55.687Z,99660.33
2023-04-03T17:27:23.011Z,99661.51
2023-04-03T17:29:50.506Z,99666.25
2023-04-03T17:32:19.087Z,99662.33
2023-04-03T17:34:48.749Z,99667.48
2023-04-03T17:37:15.543Z,99671.37
2023-04-03T17:39:43.467Z,99677.73
2023-04-03T17:42:11.367Z,99680.15
2023-04-03T17:44:39.215Z,99677.83
2023-04-03T17:47:05.942Z,99678.16
2023-04-03T17:49:34.297Z,99679.55
2023-04-03T17:52:01.192Z,99679.96
2023-04-03T17:54:28.533Z,99680.89
2023-04-03T17:56:55.314Z,99687.31
2023-04-03T17:59:23.127Z,99686.86
2023-04-03T18:01:50.493Z,99684.05
2023-04-03T18:04:17.567Z,99685.95
2023-04-03T18:06:46.219Z,99690.33
2023-04-03T18:09:15.865Z,99692.58
2023-04-03T18:11:43.589Z,99688.63
2023-04-03T18:14:10.560Z,99694.49
2023-04-03T18:16:38.987Z,99693.36
2023-04-03T18:19:22.090Z,99693.81
2023-04-03T18:21:52.336Z,99697.23
2023-04-03T18:24:21.876Z,99700.55
2023-04-03T18:26:57.634Z,99703.02
2023-04-03T18:29:25.019Z,99711.71
2023-04-03T18:31:53.410Z,99708.40
2023-04-03T18:34:20.323Z,99712.60
2023-04-03T18:36:48.451Z,99713.83
2023-04-03T18:39:21.684Z,99717.44
2023-04-03T18:41:51.190Z,99720.24
2023-04-03T18:44:19.625Z,99722.98
2023-04-03T18:46:46.400Z,99723.94
2023-04-03T18:49:13.188Z,99725.23
2023-04-03T18:51:40.615Z,99725.86
2023-04-03T18:54:08.999Z,99725.21
2023-04-03T18:56:36.731Z,99723.88
2023-04-03T18:59:03.656Z,99732.68
2023-04-03T19:01:30.581Z,99730.85
2023-04-03T19:03:57.790Z,99734.61
2023-04-03T19:06:24.413Z,99730.65
2023-04-03T19:08:51.507Z,99731.02
2023-04-03T19:11:18.384Z,99736.27
2023-04-03T19:14:04.432Z,99739.30
2023-04-03T19:16:36.445Z,99742.27
2023-04-03T19:19:03.783Z,99739.22
2023-04-03T19:21:30.793Z,99740.19
2023-04-03T19:23:58.677Z,99742.70
2023-04-03T19:26:28.331Z,99743.52
2023-04-03T19:28:55.151Z,99744.27
2023-04-03T19:31:21.841Z,99744.60
2023-04-03T19:33:49.712Z,99741.87
2023-04-03T19:36:17.852Z,99740.04
2023-04-03T19:38:48.884Z,99735.46
2023-04-03T19:41:18.362Z,99727.72
2023-04-03T19:43:45.489Z,99728.36
2023-04-03T19:46:12.263Z,99729.91
2023-04-03T19:48:39.033Z,99725.98
2023-04-03T19:51:07.359Z,99726.27
2023-04-03T19:53:35.742Z,99724.88
2023-04-03T19:56:08.886Z,99729.99
2023-04-03T19:58:36.581Z,99732.42
2023-04-03T20:01:03.331Z,99731.11
2023-04-03T20:03:33.579Z,99730.59
2023-04-03T20:06:01.269Z,99733.93
2023-04-03T20:08:31.187Z,99733.73
2023-04-03T20:10:57.912Z,99737.77
2023-04-03T20:13:25.813Z,99737.55
2023-04-03T20:15:52.869Z,99741.91
2023-04-03T20:18:20.854Z,99737.93
2023-04-03T20:20:52.741Z,99737.33
2023-04-03T20:23:20.176Z,99738.76
2023-04-03T20:25:57.690Z,99742.33
2023-04-03T20:28:33.594Z,99750.75
2023-04-03T20:31:01.758Z,99756.14
2023-04-03T20:33:29.545Z,99761.20
2023-04-03T20:35:56.815Z,99763.96
2023-04-03T20:38:23.884Z,99769.27
2023-04-03T20:40:51.368Z,99773.36
2023-04-03T20:43:21.136Z,99783.87
2023-04-03T20:45:48.578Z,99782.22
2023-04-03T20:48:15.990Z,99774.80
2023-04-03T20:50:45.032Z,99760.98
2023-04-03T20:53:18.364Z,99750.73
2023-04-03T20:55:59.211Z,99745.61
2023-04-03T20:58:29.118Z,99752.04
2023-04-03T21:00:56.677Z,99764.16
2023-04-03T21:03:29.689Z,99772.79
2023-04-03T21:06:00.046Z,99775.77
2023-04-03T21:09:06.127Z,99782.52
2023-04-03T21:12:11.381Z,99790.27
2023-04-03T21:15:20.678Z,99795.80
2023-04-03T21:18:14.296Z,99796.47
2023-04-03T21:20:42.671Z,99798.14
2023-04-03T21:23:10.444Z,99797.64
2023-04-03T21:25:37.029Z,99800.02
2023-04-03T21:28:03.718Z,99799.45
2023-04-03T21:30:30.916Z,99799.11
2023-04-03T21:33:01.134Z,99800.54
2023-04-03T21:35:29.014Z,99803.83
2023-04-03T21:37:56.220Z,99802.92
2023-04-03T21:40:24.130Z,99806.08
2023-04-03T21:42:55.346Z,99811.31
2023-04-03T21:45:23.877Z,99811.71
2023-04-03T21:47:51.495Z,99815.23
2023-04-03T21:50:18.703Z,99816.64
2023-04-03T21:52:47.398Z,99815.72
2023-04-03T21:55:14.809Z,99816.36
2023-04-03T21:57:41.755Z,99817.88
2023-04-03T22:00:10.140Z,99818.61
2023-04-03T22:02:41.248Z,99822.08
2023-04-03T22:05:08.259Z,99824.22
2023-04-03T22:07:35.148Z,99820.11
2023-04-03T22:10:02.213Z,99814.90
2023-04-03T22:12:29.402Z,99811.23
2023-04-03T22:14:56.147Z,99809.81
2023-04-03T22:17:22.957Z,99812.47
2023-04-03T22:19:49.799Z,99809.10
2023-04-03T22:22:18.172Z,99807.09
2023-04-03T22:24:45.071Z,99806.86
2023-04-03T22:27:12.500Z,99805.70
2023-04-03T22:29:40.374Z,99803.73
2023-04-03T22:32:07.131Z,99801.29
2023-04-03T22:34:37.581Z,99797.38
2023-04-03T22:37:04.862Z,99793.59
2023-04-03T22:39:32.032Z,99790.57
2023-04-03T22:42:00.932Z,99792.43
2023-04-03T22:44:32.069Z,99797.40
2023-04-03T22:47:02.253Z,99801.23
2023-04-03T22:49:29.272Z,99791.52
2023-04-03T22:51:55.881Z,99789.66
2023-04-03T22:54:22.734Z,99792.36
2023-04-03T22:56:49.738Z,99791.27
2023-04-03T22:59:16.515Z,99785.83
2023-04-03T23:01:43.753Z,99791.02
2023-04-03T23:04:11.672Z,99794.73
2023-04-03T23:06:38.511Z,99794.44
2023-04-03T23:09:06.728Z,99796.13
2023-04-03T23:11:33.763Z,99792.07
2023-04-03T23:14:02.371Z,99794.21
2023-04-03T23:16:30.712Z,99795.66
2023-04-03T23:18:57.936Z,99791.60
2023-04-03T23:21:26.004Z,99791.92
2023-04-03T23:23:53.831Z,99795.14
2023-04-03T23:26:21.581Z,99792.11
2023-04-03T23:28:48.234Z,99789.89
2023-04-03T23:31:16.189Z,99788.60
2023-04-03T23:33:43.953Z,99788.52
2023-04-03T23:36:12.533Z,99784.95
2023-04-03T23:38:42.342Z,99779.83
2023-04-03T23:41:09.062Z,99777.69
2023-04-03T23:43:36.555Z,99775.48
2023-04-03T23:46:04.345Z,99780.86
2023-04-03T23:48:31.226Z,99781.00
2023-04-03T23:50:59.852Z,99772.11
2023-04-03T23:53:28.870Z,99768.70
2023-04-03T23:55:55.835Z,99773.75
2023-04-03T23:58:25.247Z,99776.09
